Las Cruces, NM

8:56 AM MDT on June 29, 2017 (GMT -0600)
Las Cruces International

Weather History for KLRU - March, 2013

Change the Weather History Date:

Tuesday, March 5, 2013

  Actual Average Record
Temperature  
Mean Temperature 49 °F -  
Max Temperature 62 °F 61 °F 75 °F (2006)
Min Temperature 36 °F 36 °F 19 °F (2002)
Degree Days  
Heating Degree Days 16    
Moisture  
Dew Point 22 °F    
Average Humidity 34    
Maximum Humidity 56    
Minimum Humidity 21    
Precipitation  
Precipitation 0.00 in - - ()
Sea Level Pressure  
Sea Level Pressure 30.23 in    
Wind  
Wind Speed 9 mph (SE)    
Max Wind Speed 18 mph    
Max Gust Speed 24 mph    
Visibility 10 miles    
Events      
Averages and records for this station are not official NWS values.
T = Trace of Precipitation, MM = Missing Value Source: NWS Daily Summary

Daily Weather History Graph

Daily Weather History Graph

Search for Another Location

Airport or City:

Trip Planner

Search our weather history database for the weather conditions in past years. The results will help you decide how hot, cold, wet, or windy it might be!

Date:

Astronomy

Mar. 05, 2013 Rise Set
Actual Time 6:29 AM MST 6:08 PM MST
Civil Twilight 6:05 AM MST 6:33 PM MST
Nautical Twilight 5:37 AM MST 7:01 PM MST
Astronomical Twilight 5:08 AM MST 7:29 PM MST
Moon 1:30 AM MST (3/5) 12:05 PM MST (3/5)
Length of Visible Light 12h 27m
Length of Day
11h 38m
Last Quarter, 40% of the Moon is Illuminated
Mar 5
Last Quarter
Mar 11
New
Mar 19
First Quarter
Mar 27
Full
Apr 2
Last Quarter

Hourly Weather History & Observations

Time (MST) Temp. Windchill Dew Point Humidity Pressure Visibility Wind Dir Wind Speed Gust Speed Precip Events Conditions
12:15 AM 49.1 °F - 17.6 °F 29% 30.12 in 10.0 mi NW 5.8 mph - N/A   Clear
12:35 AM 45.3 °F 41.6 °F 16.7 °F 32% 30.12 in 10.0 mi NW 6.9 mph - N/A   Clear
12:55 AM 44.4 °F 42.0 °F 16.5 °F 33% 30.14 in 10.0 mi WNW 4.6 mph - N/A   Clear
1:15 AM 42.3 °F 38.6 °F 15.6 °F 34% 30.15 in 10.0 mi WNW 5.8 mph - N/A   Clear
1:35 AM 41.0 °F 35.8 °F 15.3 °F 35% 30.15 in 10.0 mi NW 8.1 mph - N/A   Clear
1:55 AM 41.0 °F 37.1 °F 15.1 °F 35% 30.16 in 10.0 mi NNW 5.8 mph - N/A   Clear
2:15 AM 40.8 °F 36.9 °F 15.1 °F 35% 30.16 in 10.0 mi NW 5.8 mph - N/A   Clear
2:35 AM 40.8 °F 35.6 °F 15.1 °F 35% 30.16 in 10.0 mi NW 8.1 mph - N/A   Clear
2:55 AM 39.7 °F 34.9 °F 15.1 °F 37% 30.16 in 10.0 mi WNW 6.9 mph - N/A   Clear
3:15 AM 41.4 °F 36.8 °F 15.4 °F 35% 30.16 in 10.0 mi NW 6.9 mph - N/A   Clear
3:35 AM 38.5 °F 35.0 °F 14.4 °F 37% 30.16 in 10.0 mi NW 4.6 mph - N/A   Clear
3:55 AM 36.3 °F 31.6 °F 14.4 °F 41% 30.17 in 10.0 mi NNW 5.8 mph - N/A   Clear
4:15 AM 36.0 °F 32.1 °F 14.2 °F 41% 30.17 in 10.0 mi NNW 4.6 mph - N/A   Clear
4:35 AM 39.4 °F 36.1 °F 15.6 °F 38% 30.19 in 10.0 mi East 4.6 mph - N/A   Clear
4:55 AM 39.7 °F 33.7 °F 15.8 °F 38% 30.20 in 10.0 mi ESE 9.2 mph - N/A   Clear
5:15 AM 41.5 °F 37.8 °F 21.9 °F 46% 30.21 in 10.0 mi ESE 5.8 mph - N/A   Clear
5:35 AM 40.8 °F 38.8 °F 23.5 °F 50% 30.23 in 10.0 mi SSE 3.5 mph - N/A   Clear
6:15 AM 41.9 °F 35.0 °F 26.6 °F 55% 30.25 in 10.0 mi SE 12.7 mph - N/A   Clear
6:35 AM 40.6 °F 34.3 °F 25.9 °F 56% 30.27 in 7.0 mi SSE 10.4 mph - N/A   Clear
6:55 AM 39.9 °F 32.9 °F 25.2 °F 56% 30.26 in 10.0 mi SSE 11.5 mph - N/A   Clear
7:15 AM 40.8 °F 32.6 °F 24.8 °F 53% 30.27 in 10.0 mi SSE 16.1 mph 20.7 mph N/A   Clear
7:35 AM 42.6 °F 34.9 °F 25.2 °F 50% 30.29 in 10.0 mi SE 16.1 mph - N/A   Clear
7:55 AM 43.7 °F 36.6 °F 25.2 °F 48% 30.29 in 10.0 mi SE 15.0 mph 19.6 mph N/A   Clear
8:15 AM 44.8 °F 37.7 °F 25.2 °F 46% 30.31 in 10.0 mi ESE 16.1 mph 20.7 mph N/A   Clear
8:35 AM 46.2 °F 39.3 °F 24.8 °F 43% 30.31 in 10.0 mi SE 17.3 mph - N/A   Clear
8:55 AM 46.9 °F - 24.8 °F 42% 30.31 in 10.0 mi SE 15.0 mph - N/A   Clear
9:15 AM 48.9 °F - 24.6 °F 39% 30.31 in 10.0 mi SE 16.1 mph 21.9 mph N/A   Clear
9:35 AM 49.3 °F - 23.9 °F 37% 30.32 in 10.0 mi SE 17.3 mph - N/A   Clear
9:55 AM 50.0 °F - 23.9 °F 36% 30.32 in 10.0 mi SE 16.1 mph - N/A   Clear
10:15 AM 50.7 °F - 23.9 °F 35% 30.32 in 10.0 mi SE 18.4 mph 23.0 mph N/A   Clear
10:35 AM 51.1 °F - 23.9 °F 35% 30.32 in 10.0 mi SE 13.8 mph 24.2 mph N/A   Clear
10:55 AM 52.7 °F - 24.3 °F 33% 30.32 in 10.0 mi SSE 16.1 mph 23.0 mph N/A   Clear
11:15 AM 54.1 °F - 24.4 °F 32% 30.31 in 10.0 mi SE 17.3 mph 24.2 mph N/A   Clear
11:35 AM 55.4 °F - 24.8 °F 31% 30.31 in 10.0 mi SE 15.0 mph 20.7 mph N/A   Clear
11:55 AM 57.0 °F - 25.0 °F 29% 30.31 in 10.0 mi SE 15.0 mph - N/A   Clear
12:15 PM 57.6 °F - 24.6 °F 28% 30.30 in 10.0 mi SE 13.8 mph - N/A   Clear
12:35 PM 58.1 °F - 24.8 °F 28% 30.28 in 10.0 mi SSE 10.4 mph 21.9 mph N/A   Clear
12:55 PM 59.7 °F - 24.4 °F 26% 30.27 in 10.0 mi SSE 12.7 mph 18.4 mph N/A   Clear
1:15 PM 60.3 °F - 24.3 °F 25% 30.26 in 10.0 mi ESE 9.2 mph 18.4 mph N/A   Clear
1:35 PM 61.2 °F - 23.9 °F 24% 30.25 in 10.0 mi SE 15.0 mph 19.6 mph N/A   Clear
1:55 PM 61.2 °F - 24.1 °F 24% 30.24 in 10.0 mi SE 10.4 mph 16.1 mph N/A   Clear
2:15 PM 61.9 °F - 23.9 °F 23% 30.23 in 10.0 mi SE 9.2 mph 18.4 mph N/A   Clear
2:35 PM 62.2 °F - 23.2 °F 22% 30.23 in 10.0 mi SE 10.4 mph 20.7 mph N/A   Clear
2:55 PM 62.8 °F - 22.6 °F 22% 30.21 in 10.0 mi ESE 13.8 mph 19.6 mph N/A   Clear
3:15 PM 62.6 °F - 22.8 °F 22% 30.21 in 10.0 mi SE 12.7 mph 20.7 mph N/A   Clear
3:35 PM 62.6 °F - 22.3 °F 21% 30.20 in 10.0 mi SE 13.8 mph 19.6 mph N/A   Clear
3:55 PM 62.1 °F - 21.7 °F 21% 30.19 in 10.0 mi SE 16.1 mph 20.7 mph N/A   Clear
4:15 PM 61.9 °F - 22.5 °F 22% 30.19 in 10.0 mi SE 12.7 mph - N/A   Clear
4:35 PM 61.5 °F - 21.7 °F 22% 30.19 in 10.0 mi ESE 11.5 mph 19.6 mph N/A   Clear
4:55 PM 60.8 °F - 21.9 °F 22% 30.19 in 10.0 mi ESE 12.7 mph - N/A   Clear
5:15 PM 60.1 °F - 21.7 °F 23% 30.19 in 10.0 mi ESE 11.5 mph - N/A   Clear
5:35 PM 59.0 °F - 21.4 °F 23% 30.19 in 10.0 mi ESE 8.1 mph - N/A   Clear
5:55 PM 58.3 °F - 22.1 °F 25% 30.20 in 10.0 mi ESE 8.1 mph - N/A   Clear
6:15 PM 56.5 °F - 22.1 °F 26% 30.20 in 10.0 mi ESE 5.8 mph - N/A   Clear
6:35 PM 55.0 °F - 22.1 °F 28% 30.20 in 10.0 mi East 6.9 mph - N/A   Clear
6:55 PM 53.8 °F - 22.1 °F 29% 30.20 in 10.0 mi East 6.9 mph - N/A   Clear
7:15 PM 52.2 °F - 21.9 °F 31% 30.21 in 10.0 mi East 4.6 mph - N/A   Clear
7:35 PM 52.2 °F - 22.1 °F 31% 30.21 in 10.0 mi ESE 3.5 mph - N/A   Clear
7:55 PM 51.6 °F - 22.1 °F 32% 30.22 in 10.0 mi SE 5.8 mph - N/A   Clear
8:15 PM 52.2 °F - 22.1 °F 31% 30.22 in 10.0 mi ESE 6.9 mph - N/A   Clear
8:35 PM 52.0 °F - 22.5 °F 32% 30.23 in 10.0 mi SE 8.1 mph - N/A   Clear
8:55 PM 52.0 °F - 22.5 °F 32% 30.23 in 10.0 mi SE 9.2 mph - N/A   Clear
9:15 PM 51.3 °F - 22.5 °F 32% 30.24 in 10.0 mi SE 9.2 mph - N/A   Clear
9:35 PM 50.9 °F - 22.1 °F 32% 30.24 in 10.0 mi SE 9.2 mph - N/A   Clear
9:55 PM 50.4 °F - 22.1 °F 33% 30.24 in 10.0 mi SE 9.2 mph - N/A   Clear
10:15 PM 50.0 °F - 22.1 °F 33% 30.24 in 10.0 mi SE 9.2 mph - N/A   Clear
10:35 PM 49.8 °F - 21.9 °F 33% 30.24 in 10.0 mi SE 8.1 mph - N/A   Clear
10:55 PM 49.8 °F - 21.9 °F 33% 30.24 in 10.0 mi SE 9.2 mph - N/A   Clear
11:15 PM 49.1 °F - 21.9 °F 34% 30.23 in 10.0 mi SE 8.1 mph - N/A   Clear
11:35 PM 49.1 °F - 21.9 °F 34% 30.23 in 10.0 mi SE 10.4 mph - N/A   Clear
11:55 PM 48.6 °F - 21.9 °F 35% 30.22 in 10.0 mi SE 9.2 mph - N/A   Clear